Time;durP1;ratioP1;P1;durP2;ratioP2;P2;SDS_P1;SDS_P2;PMS_P1;PMS_P2;Temp;Humidity;BMP_temperature;BMP_pressure;BME280_temperature;BME280_humidity;BME280_pressure;Samples;Min_cycle;Max_cycle;Signal;HPM_P1;HPM_P2
2024/01/15 00:00:44;;;;;;;31.05;27.77;;;23.40;65.40;;;;;;6193744;28;82752;-62
2024/01/15 00:03:46;;;;;;;49.72;44.58;;;23.40;65.50;;;;;;6185849;28;86306;-62
2024/01/15 00:06:49;;;;;;;62.25;56.10;;;23.40;65.50;;;;;;6198027;28;82916;-62
2024/01/15 00:09:50;;;;;;;79.53;71.93;;;23.40;65.40;;;;;;6195535;28;84314;-62
2024/01/15 00:12:54;;;;;;;152.05;136.57;;;23.40;65.00;;;;;;6190245;28;83692;-61
2024/01/15 00:15:56;;;;;;;196.65;176.30;;;23.40;64.00;;;;;;6191616;28;85699;-62
2024/01/15 00:18:58;;;;;;;204.30;183.20;;;23.40;63.00;;;;;;6188228;28;87417;-62
2024/01/15 00:22:00;;;;;;;204.45;183.10;;;23.40;62.30;;;;;;6184275;28;86336;-62
2024/01/15 00:25:02;;;;;;;183.73;163.98;;;23.40;61.90;;;;;;6190337;28;85542;-62
2024/01/15 00:28:06;;;;;;;156.00;139.35;;;23.40;61.40;;;;;;6182240;28;88066;-62
2024/01/15 00:31:09;;;;;;;138.35;123.60;;;23.40;60.50;;;;;;6183185;28;85285;-62
2024/01/15 00:34:11;;;;;;;125.45;112.18;;;23.30;60.00;;;;;;6187710;28;85276;-62
2024/01/15 00:37:13;;;;;;;116.47;104.60;;;23.30;60.50;;;;;;6196878;28;86040;-62
2024/01/15 00:40:15;;;;;;;109.68;98.57;;;23.40;60.90;;;;;;6186497;28;85319;-62
2024/01/15 00:43:19;;;;;;;105.35;94.35;;;23.30;61.30;;;;;;6186068;28;82744;-62
2024/01/15 00:46:21;;;;;;;100.32;90.03;;;23.30;61.50;;;;;;6190999;28;82877;-62
2024/01/15 00:49:24;;;;;;;94.03;84.43;;;23.30;61.60;;;;;;6191560;28;83102;-62
2024/01/15 00:52:26;;;;;;;93.05;83.38;;;23.30;61.90;;;;;;6184230;28;83181;-62
2024/01/15 00:55:29;;;;;;;88.75;79.68;;;23.30;62.00;;;;;;6187048;28;84357;-61
2024/01/15 00:58:32;;;;;;;83.35;74.88;;;23.30;62.20;;;;;;6186018;28;84188;-61
2024/01/15 01:01:35;;;;;;;80.32;72.05;;;23.40;62.30;;;;;;6183621;28;82828;-61
2024/01/15 01:04:37;;;;;;;81.47;73.07;;;23.30;62.30;;;;;;6191980;28;82816;-62
2024/01/15 01:07:39;;;;;;;99.93;90.13;;;23.40;63.30;;;;;;6198978;28;83367;-62
2024/01/15 01:10:42;;;;;;;82.22;73.80;;;23.50;64.20;;;;;;6190735;28;83634;-62
2024/01/15 01:13:46;;;;;;;79.80;71.88;;;23.60;63.70;;;;;;6199451;28;82854;-61
2024/01/15 01:16:48;;;;;;;74.25;66.80;;;23.60;62.70;;;;;;6192820;28;83611;-62
2024/01/15 01:19:50;;;;;;;68.97;61.58;;;23.70;62.50;;;;;;6193336;28;83673;-62
2024/01/15 01:22:52;;;;;;;67.68;60.88;;;23.70;62.70;;;;;;6193993;28;83517;-62
2024/01/15 01:25:54;;;;;;;63.03;56.45;;;23.70;62.70;;;;;;6181872;28;83022;-62
2024/01/15 01:28:58;;;;;;;61.58;55.28;;;23.70;62.70;;;;;;6196531;28;82810;-62
2024/01/15 01:32:00;;;;;;;59.00;52.90;;;23.60;62.80;;;;;;6192344;28;83223;-62
2024/01/15 01:35:02;;;;;;;57.42;51.47;;;23.60;62.90;;;;;;6192817;28;83306;-62
2024/01/15 01:38:04;;;;;;;54.38;48.80;;;23.60;63.00;;;;;;6194368;28;84088;-62
2024/01/15 01:41:06;;;;;;;28.38;25.33;;;23.60;63.20;;;;;;6197605;28;84853;-62
2024/01/15 01:44:09;;;;;;;20.52;18.33;;;23.50;57.10;;;;;;6198822;28;82840;-62
2024/01/15 01:47:12;;;;;;;19.08;17.13;;;23.40;54.20;;;;;;6204924;28;82813;-62
2024/01/15 01:50:15;;;;;;;19.73;17.52;;;23.40;54.20;;;;;;6201560;28;82703;-62
2024/01/15 01:53:17;;;;;;;16.70;15.10;;;23.30;55.30;;;;;;6185305;28;82807;-61
2024/01/15 01:56:19;;;;;;;16.33;14.63;;;23.30;56.10;;;;;;6194437;28;83926;-62
2024/01/15 01:59:24;;;;;;;14.95;13.25;;;23.30;56.50;;;;;;6196649;28;82928;-62
2024/01/15 02:02:27;;;;;;;15.10;13.50;;;23.30;57.00;;;;;;6195880;28;82824;-62
2024/01/15 02:05:29;;;;;;;14.43;12.98;;;23.30;57.40;;;;;;6190643;28;82796;-62
2024/01/15 02:08:32;;;;;;;13.23;11.98;;;23.30;57.60;;;;;;6204885;28;83436;-62
2024/01/15 02:11:34;;;;;;;12.65;11.32;;;23.30;57.90;;;;;;6185178;28;84959;-62
2024/01/15 02:14:38;;;;;;;13.80;12.32;;;23.30;58.20;;;;;;6188906;28;83415;-62
2024/01/15 02:17:57;;;;;;;13.00;11.70;;;23.30;58.40;;;;;;6186881;28;83403;-62
2024/01/15 02:20:59;;;;;;;13.20;11.02;;;23.30;58.50;;;;;;6193348;28;83598;-62
2024/01/15 02:24:03;;;;;;;12.10;10.88;;;23.30;58.80;;;;;;6199373;28;83217;-62
2024/01/15 02:27:05;;;;;;;12.48;11.00;;;23.30;58.90;;;;;;6188671;28;83637;-62
2024/01/15 02:30:09;;;;;;;11.77;10.57;;;23.20;59.00;;;;;;6196811;28;82977;-61
2024/01/15 02:33:12;;;;;;;10.75;9.70;;;23.20;59.10;;;;;;6191652;28;84503;-62
2024/01/15 02:36:14;;;;;;;10.80;9.70;;;23.30;59.30;;;;;;6193854;28;82319;-62
2024/01/15 02:39:18;;;;;;;10.98;9.63;;;23.30;59.50;;;;;;6192935;28;82318;-62
2024/01/15 02:42:20;;;;;;;10.80;9.65;;;23.30;59.60;;;;;;6199346;28;82366;-62
2024/01/15 02:45:23;;;;;;;10.85;9.70;;;23.20;59.60;;;;;;6207763;28;84366;-62
2024/01/15 02:48:24;;;;;;;11.32;9.93;;;23.30;59.90;;;;;;6200617;28;83278;-62
2024/01/15 02:51:26;;;;;;;10.20;9.15;;;23.30;59.90;;;;;;6189177;28;84076;-62
2024/01/15 02:54:31;;;;;;;10.90;9.80;;;23.30;60.00;;;;;;6199298;28;82882;-62
2024/01/15 02:57:33;;;;;;;10.32;9.27;;;23.20;60.00;;;;;;6192502;28;84980;-62
2024/01/15 03:00:35;;;;;;;9.68;8.63;;;23.20;60.10;;;;;;6200351;28;84048;-62
2024/01/15 03:03:37;;;;;;;9.45;8.48;;;23.20;60.10;;;;;;6187723;28;84064;-62
2024/01/15 03:06:39;;;;;;;9.95;8.80;;;23.30;60.40;;;;;;6195124;28;84320;-62
2024/01/15 03:09:42;;;;;;;9.60;8.60;;;23.30;60.40;;;;;;6193198;28;84118;-62
2024/01/15 03:12:44;;;;;;;9.38;8.38;;;23.20;60.40;;;;;;6186966;28;84079;-62
2024/01/15 03:15:46;;;;;;;9.82;8.52;;;23.30;60.50;;;;;;6200525;28;83945;-62
2024/01/15 03:18:48;;;;;;;8.82;8.02;;;23.20;60.50;;;;;;6193591;28;83616;-62
2024/01/15 03:21:50;;;;;;;8.60;7.70;;;23.20;60.50;;;;;;6195711;28;82903;-62
2024/01/15 03:24:53;;;;;;;8.82;7.90;;;23.20;60.60;;;;;;6191174;28;84159;-62
2024/01/15 03:27:55;;;;;;;8.95;7.85;;;23.30;60.80;;;;;;6201360;28;85018;-62
2024/01/15 03:30:57;;;;;;;8.65;7.75;;;23.20;60.80;;;;;;6186606;28;84278;-62
2024/01/15 03:33:59;;;;;;;8.52;7.53;;;23.20;60.90;;;;;;6194875;28;83975;-62
2024/01/15 03:37:01;;;;;;;7.72;6.97;;;23.20;60.90;;;;;;6199354;28;83997;-62
2024/01/15 03:40:06;;;;;;;9.10;7.30;;;23.20;61.00;;;;;;6191459;28;84278;-62
2024/01/15 03:43:08;;;;;;;8.10;7.25;;;23.20;61.00;;;;;;6207634;28;83013;-62
2024/01/15 03:46:10;;;;;;;8.82;7.43;;;23.30;61.10;;;;;;6196349;28;84351;-61
2024/01/15 03:49:12;;;;;;;8.13;7.30;;;23.20;61.10;;;;;;6194042;28;82139;-62
2024/01/15 03:52:14;;;;;;;7.57;6.88;;;23.20;61.10;;;;;;6190978;28;83959;-62
2024/01/15 03:55:17;;;;;;;7.38;6.68;;;23.20;61.20;;;;;;6187216;28;84119;-62
2024/01/15 03:58:19;;;;;;;7.53;6.55;;;23.20;61.20;;;;;;6191652;28;85434;-63
2024/01/15 04:01:21;;;;;;;6.95;6.25;;;23.20;61.20;;;;;;6196618;28;84030;-62
2024/01/15 04:04:23;;;;;;;7.97;6.60;;;23.20;61.30;;;;;;6187055;28;84002;-62
2024/01/15 04:07:25;;;;;;;7.10;6.40;;;23.20;61.40;;;;;;6203561;28;84013;-62
2024/01/15 04:10:29;;;;;;;7.50;6.70;;;23.20;61.50;;;;;;6195000;28;84020;-62
2024/01/15 04:13:33;;;;;;;7.00;6.30;;;23.20;61.50;;;;;;6205289;28;84003;-62
2024/01/15 04:16:35;;;;;;;6.47;5.88;;;23.20;61.50;;;;;;6203853;28;84022;-62
2024/01/15 04:19:37;;;;;;;6.88;6.18;;;23.20;61.50;;;;;;6187172;28;83427;-62
2024/01/15 04:22:39;;;;;;;7.40;6.32;;;23.20;61.50;;;;;;6186292;28;83996;-62
2024/01/15 04:25:43;;;;;;;6.82;6.22;;;23.20;61.60;;;;;;6187328;28;84268;-62
2024/01/15 04:28:46;;;;;;;6.65;6.05;;;23.30;61.60;;;;;;6184233;28;84377;-62
2024/01/15 04:31:48;;;;;;;6.50;5.90;;;23.30;61.60;;;;;;6197112;28;83372;-62
2024/01/15 04:34:50;;;;;;;6.72;6.05;;;23.30;61.50;;;;;;6202512;28;84099;-62
2024/01/15 04:37:52;;;;;;;6.28;5.68;;;23.30;61.60;;;;;;6207152;28;84387;-62
2024/01/15 04:40:56;;;;;;;6.43;5.65;;;23.30;62.50;;;;;;6205802;28;84344;-62
2024/01/15 04:44:00;;;;;;;8.18;6.20;;;23.30;61.50;;;;;;6194264;28;84050;-62
2024/01/15 04:47:02;;;;;;;6.20;5.60;;;23.30;61.60;;;;;;6186162;28;84391;-62
2024/01/15 04:50:04;;;;;;;6.10;5.50;;;23.30;61.60;;;;;;6205856;28;83287;-62
2024/01/15 04:53:06;;;;;;;5.75;5.25;;;23.30;61.60;;;;;;6187257;28;84045;-63
2024/01/15 04:56:10;;;;;;;6.72;5.85;;;23.30;61.50;;;;;;6197632;28;82974;-62
2024/01/15 04:59:12;;;;;;;6.65;5.80;;;23.30;61.60;;;;;;6187418;28;84966;-62
2024/01/15 05:02:14;;;;;;;7.30;6.10;;;23.30;61.60;;;;;;6184870;28;84183;-62
2024/01/15 05:05:16;;;;;;;6.57;5.88;;;23.30;61.60;;;;;;6187837;28;84064;-62
2024/01/15 05:08:18;;;;;;;6.55;5.70;;;23.30;61.60;;;;;;6198882;28;84221;-62
2024/01/15 05:11:21;;;;;;;5.75;5.15;;;23.40;61.70;;;;;;6189996;28;84098;-62
2024/01/15 05:14:23;;;;;;;5.90;5.05;;;23.40;61.60;;;;;;6189730;28;83031;-62
2024/01/15 05:17:25;;;;;;;5.75;5.25;;;23.30;61.60;;;;;;6205834;28;83316;-62
2024/01/15 05:20:27;;;;;;;6.55;5.65;;;23.30;61.60;;;;;;6192692;28;83400;-62
2024/01/15 05:23:29;;;;;;;5.85;5.25;;;23.30;61.70;;;;;;6186039;28;83973;-62
2024/01/15 05:26:32;;;;;;;6.05;5.45;;;23.40;61.80;;;;;;6185388;28;84212;-62
2024/01/15 05:29:34;;;;;;;5.75;5.22;;;23.40;61.90;;;;;;6192774;28;84815;-62
2024/01/15 05:32:36;;;;;;;6.22;5.03;;;23.30;61.80;;;;;;6200045;28;84063;-62
2024/01/15 05:35:38;;;;;;;5.88;5.15;;;23.30;61.80;;;;;;6188120;28;84101;-62
2024/01/15 05:38:40;;;;;;;6.15;5.38;;;23.30;61.90;;;;;;6184189;28;84115;-62
2024/01/15 05:41:44;;;;;;;5.10;4.43;;;23.30;62.00;;;;;;6193121;28;84014;-60
2024/01/15 05:44:46;;;;;;;6.72;5.30;;;23.30;62.00;;;;;;6195953;28;84397;-60
2024/01/15 05:47:48;;;;;;;5.93;4.90;;;23.30;62.00;;;;;;6191946;28;84062;-60
2024/01/15 05:50:50;;;;;;;5.53;4.93;;;23.30;62.10;;;;;;6188087;28;83229;-60
2024/01/15 05:53:51;;;;;;;5.53;5.03;;;23.30;62.10;;;;;;6198219;28;83793;-60
2024/01/15 05:56:55;;;;;;;4.70;4.30;;;23.30;62.20;;;;;;6209371;28;84403;-60
2024/01/15 05:59:57;;;;;;;6.28;5.13;;;23.30;62.20;;;;;;6203857;28;85006;-60
2024/01/15 06:02:59;;;;;;;5.68;4.97;;;23.30;62.20;;;;;;6195666;28;83995;-60
2024/01/15 06:06:01;;;;;;;5.20;4.70;;;23.30;62.20;;;;;;6197354;28;84109;-60
2024/01/15 06:09:05;;;;;;;5.43;4.50;;;23.20;62.30;;;;;;6189631;28;84066;-61
2024/01/15 06:12:09;;;;;;;5.22;4.72;;;23.20;62.20;;;;;;6190372;28;83939;-61
2024/01/15 06:15:11;;;;;;;5.43;4.53;;;23.20;62.30;;;;;;6192346;28;83264;-61
2024/01/15 06:18:13;;;;;;;6.22;5.07;;;23.30;62.30;;;;;;6186950;28;83783;-61
2024/01/15 06:21:16;;;;;;;4.93;4.53;;;23.30;62.30;;;;;;6192642;28;83439;-61
2024/01/15 06:24:20;;;;;;;5.28;4.78;;;23.20;62.20;;;;;;6188865;28;83887;-61
2024/01/15 06:27:23;;;;;;;5.32;4.60;;;23.20;62.30;;;;;;6194398;28;84091;-61
2024/01/15 06:30:25;;;;;;;4.60;4.05;;;23.30;62.40;;;;;;6197375;28;85241;-61
2024/01/15 06:33:27;;;;;;;5.70;4.68;;;23.20;62.50;;;;;;6195218;28;83984;-61
2024/01/15 06:36:29;;;;;;;6.07;4.65;;;23.20;62.40;;;;;;6203182;28;83859;-61
2024/01/15 06:39:31;;;;;;;4.57;4.18;;;23.20;62.50;;;;;;6211954;28;83953;-61
2024/01/15 06:42:34;;;;;;;4.93;4.45;;;23.20;62.50;;;;;;6204900;28;83984;-61
2024/01/15 06:45:36;;;;;;;4.65;4.13;;;23.20;62.50;;;;;;6204008;28;84061;-61
2024/01/15 06:48:38;;;;;;;5.68;4.90;;;23.20;62.50;;;;;;6204224;28;84393;-61
2024/01/15 06:51:41;;;;;;;4.38;3.78;;;23.30;62.50;;;;;;6194052;28;83268;-61
2024/01/15 06:54:43;;;;;;;4.75;4.28;;;23.20;62.40;;;;;;6193364;28;83820;-61
2024/01/15 06:57:47;;;;;;;7.43;5.05;;;23.30;62.40;;;;;;6194355;28;83916;-61
2024/01/15 07:00:48;;;;;;;5.50;4.47;;;23.20;62.30;;;;;;6193935;28;84499;-61
2024/01/15 07:03:51;;;;;;;4.32;3.70;;;23.30;62.40;;;;;;6203688;28;84441;-61
2024/01/15 07:06:53;;;;;;;5.93;4.22;;;23.30;62.40;;;;;;6201879;28;84036;-61
2024/01/15 07:09:54;;;;;;;5.60;4.38;;;23.30;62.30;;;;;;6195910;28;83972;-61
2024/01/15 07:12:58;;;;;;;5.53;4.18;;;23.30;62.30;;;;;;6185793;28;82953;-61
2024/01/15 07:16:00;;;;;;;4.60;4.13;;;23.30;62.30;;;;;;6190880;28;84106;-61
2024/01/15 07:19:02;;;;;;;4.45;4.05;;;23.30;62.30;;;;;;6188363;28;83198;-61
2024/01/15 07:22:04;;;;;;;4.28;3.88;;;23.30;62.30;;;;;;6191718;28;82127;-61
2024/01/15 07:25:07;;;;;;;4.72;4.18;;;23.30;62.30;;;;;;6207827;28;83993;-61
2024/01/15 07:28:10;;;;;;;4.28;3.88;;;23.30;62.20;;;;;;6191073;28;84078;-61
2024/01/15 07:31:12;;;;;;;5.32;4.50;;;23.30;62.20;;;;;;6185875;28;85494;-61
2024/01/15 07:34:14;;;;;;;4.10;3.70;;;23.30;62.30;;;;;;6200316;28;84044;-61
2024/01/15 07:37:16;;;;;;;4.55;3.85;;;23.30;62.20;;;;;;6199041;28;84478;-61
2024/01/15 07:40:18;;;;;;;4.78;4.28;;;23.40;62.30;;;;;;6196893;28;83790;-61
2024/01/15 07:43:22;;;;;;;4.10;3.70;;;23.40;62.40;;;;;;6193320;28;84045;-61
2024/01/15 07:46:24;;;;;;;4.28;3.88;;;23.40;62.30;;;;;;6208244;28;83389;-61
2024/01/15 07:49:26;;;;;;;4.68;4.28;;;23.40;62.30;;;;;;6199685;28;84017;-61
2024/01/15 07:52:28;;;;;;;4.30;3.90;;;23.40;62.30;;;;;;6202445;28;83268;-61
2024/01/15 07:55:30;;;;;;;4.90;3.92;;;23.40;62.30;;;;;;6193089;28;83134;-61
2024/01/15 07:58:34;;;;;;;4.65;4.15;;;23.40;62.30;;;;;;6194641;28;84413;-61
2024/01/15 08:01:36;;;;;;;4.18;3.78;;;23.40;63.30;;;;;;6189968;28;85155;-61
2024/01/15 08:04:38;;;;;;;4.15;3.78;;;23.40;62.30;;;;;;6196101;28;83259;-61
2024/01/15 08:07:40;;;;;;;4.30;3.75;;;23.30;62.20;;;;;;6190859;28;82895;-61
2024/01/15 08:10:42;;;;;;;4.65;4.05;;;23.40;62.30;;;;;;6187499;28;84463;-61
2024/01/15 08:13:45;;;;;;;3.80;3.50;;;23.40;62.30;;;;;;6193118;28;84330;-61
2024/01/15 08:16:47;;;;;;;3.90;3.40;;;23.40;62.30;;;;;;6187329;28;84040;-61
2024/01/15 08:19:49;;;;;;;4.15;3.55;;;23.40;62.30;;;;;;6188246;28;84378;-61
2024/01/15 08:22:51;;;;;;;5.18;3.67;;;23.40;62.30;;;;;;6202111;28;83376;-61
2024/01/15 08:25:53;;;;;;;5.88;3.63;;;23.40;62.20;;;;;;6194829;28;83940;-61
2024/01/15 08:28:57;;;;;;;3.83;3.42;;;23.40;62.20;;;;;;6193709;28;84356;-61
2024/01/15 08:31:59;;;;;;;4.03;3.40;;;23.40;62.20;;;;;;6204018;28;85003;-61
2024/01/15 08:35:03;;;;;;;3.80;3.40;;;23.40;62.20;;;;;;6191705;28;84059;-61
2024/01/15 08:38:05;;;;;;;4.68;3.50;;;23.40;62.20;;;;;;6199244;28;83908;-61
2024/01/15 08:41:08;;;;;;;3.85;3.22;;;23.40;62.20;;;;;;6199270;28;84276;-62
2024/01/15 08:44:11;;;;;;;3.95;3.25;;;23.50;62.20;;;;;;6196648;28;84030;-61
2024/01/15 08:47:13;;;;;;;7.25;4.22;;;23.40;62.40;;;;;;6184995;28;84207;-61
2024/01/15 08:50:15;;;;;;;4.57;3.58;;;23.40;62.20;;;;;;6186227;28;84392;-61
2024/01/15 08:53:17;;;;;;;5.20;3.50;;;23.40;62.20;;;;;;6195538;28;83219;-61
2024/01/15 08:56:19;;;;;;;3.55;3.25;;;23.50;62.20;;;;;;6205942;28;84025;-61
2024/01/15 08:59:25;;;;;;;4.45;3.33;;;23.40;62.20;;;;;;6204760;28;84110;-61
2024/01/15 09:02:27;;;;;;;3.42;3.13;;;23.40;62.20;;;;;;6196184;28;85074;-61
2024/01/15 09:05:29;;;;;;;4.03;3.13;;;23.40;62.30;;;;;;6194765;28;83958;-61
2024/01/15 09:08:31;;;;;;;4.57;3.55;;;23.40;62.20;;;;;;6186614;28;84310;-61
2024/01/15 09:11:33;;;;;;;3.63;3.25;;;23.40;62.30;;;;;;6184031;28;84463;-61
2024/01/15 09:14:37;;;;;;;5.22;3.30;;;23.40;62.20;;;;;;6191013;28;84324;-61
2024/01/15 09:17:39;;;;;;;4.15;3.30;;;23.40;62.30;;;;;;6188148;28;84052;-61
2024/01/15 09:20:41;;;;;;;3.78;3.20;;;23.40;62.20;;;;;;6198193;28;82900;-61
2024/01/15 09:23:43;;;;;;;3.47;3.10;;;23.40;62.30;;;;;;6190184;28;83407;-61
2024/01/15 09:26:45;;;;;;;6.13;3.60;;;23.40;62.30;;;;;;6191364;28;83686;-61
2024/01/15 09:29:48;;;;;;;3.47;3.05;;;23.40;62.30;;;;;;6188379;28;84083;-61
2024/01/15 09:32:50;;;;;;;3.38;3.08;;;23.40;62.40;;;;;;6187428;28;85426;-61
2024/01/15 09:35:52;;;;;;;4.18;3.20;;;23.40;62.30;;;;;;6188648;28;84453;-61
2024/01/15 09:38:54;;;;;;;3.95;3.17;;;23.40;62.40;;;;;;6190261;28;84302;-61
2024/01/15 09:41:56;;;;;;;4.88;3.28;;;23.40;62.40;;;;;;6190372;28;84035;-61
2024/01/15 09:45:00;;;;;;;4.03;3.35;;;23.40;62.40;;;;;;6194269;28;84055;-61
2024/01/15 09:48:03;;;;;;;4.57;3.40;;;23.40;62.40;;;;;;6188155;28;82847;-61
2024/01/15 09:51:07;;;;;;;3.53;3.10;;;23.40;62.50;;;;;;6196018;28;84079;-61
2024/01/15 09:54:09;;;;;;;5.15;3.47;;;23.40;62.50;;;;;;6196391;28;83600;-61
2024/01/15 09:57:11;;;;;;;5.30;3.33;;;23.40;62.50;;;;;;6196659;28;83752;-61
2024/01/15 10:00:18;;;;;;;3.35;2.90;;;23.40;62.50;;;;;;6189201;28;84075;-61
2024/01/15 10:03:21;;;;;;;3.45;2.90;;;23.40;62.50;;;;;;6194001;28;85257;-61
2024/01/15 10:06:23;;;;;;;4.13;3.00;;;23.40;62.50;;;;;;6206093;28;84073;-61
2024/01/15 10:09:25;;;;;;;3.38;2.90;;;23.40;62.50;;;;;;6192356;28;84045;-61
2024/01/15 10:12:28;;;;;;;3.55;2.90;;;23.40;62.50;;;;;;6187412;28;84035;-61
2024/01/15 10:15:36;;;;;;;5.55;2.90;;;23.40;62.60;;;;;;6186552;28;83139;-61
2024/01/15 10:18:39;;;;;;;4.15;2.92;;;23.40;62.60;;;;;;6196346;28;84082;-61
2024/01/15 10:21:41;;;;;;;4.28;2.97;;;23.40;62.60;;;;;;6193904;28;84483;-62
2024/01/15 10:24:43;;;;;;;4.43;2.90;;;23.40;62.60;;;;;;6189266;28;82188;-61
2024/01/15 10:27:46;;;;;;;3.15;2.55;;;23.40;62.70;;;;;;6197637;28;83435;-61
2024/01/15 10:30:53;;;;;;;3.25;2.80;;;23.40;62.70;;;;;;6195011;28;84244;-61
2024/01/15 10:33:56;;;;;;;3.25;2.70;;;23.40;62.70;;;;;;6194032;28;84908;-61
2024/01/15 10:36:58;;;;;;;3.13;2.80;;;23.40;62.70;;;;;;6196348;28;82975;-61
2024/01/15 10:40:03;;;;;;;3.00;2.70;;;23.40;62.70;;;;;;6188292;28;83997;-61
2024/01/15 10:43:05;;;;;;;4.25;2.72;;;23.40;62.70;;;;;;6201732;28;84081;-62
2024/01/15 10:46:09;;;;;;;5.43;3.08;;;23.30;62.70;;;;;;6196087;28;84472;-61
2024/01/15 10:49:12;;;;;;;3.90;2.72;;;23.40;62.80;;;;;;6200061;28;84073;-61
2024/01/15 10:52:15;;;;;;;3.53;2.50;;;23.30;62.80;;;;;;6202431;28;84056;-61
2024/01/15 10:55:18;;;;;;;3.65;2.75;;;23.40;62.80;;;;;;6201293;28;83285;-61
2024/01/15 10:58:22;;;;;;;3.15;2.65;;;23.40;62.80;;;;;;6187234;28;84105;-61
2024/01/15 11:01:26;;;;;;;4.63;2.50;;;23.30;62.80;;;;;;6200656;28;84022;-61
2024/01/15 11:04:29;;;;;;;3.33;2.42;;;23.30;62.80;;;;;;6204177;28;84859;-61
2024/01/15 11:07:32;;;;;;;3.28;2.45;;;23.30;62.90;;;;;;6201205;28;84035;-61
2024/01/15 11:10:46;;;;;;;4.05;2.70;;;23.30;62.90;;;;;;6205325;28;83966;-61
2024/01/15 11:13:51;;;;;;;4.30;2.55;;;23.30;62.90;;;;;;6206006;28;84104;-61
2024/01/15 11:16:59;;;;;;;3.60;2.60;;;23.30;63.00;;;;;;6199170;28;84321;-61
2024/01/15 11:20:01;;;;;;;3.67;2.42;;;23.30;63.00;;;;;;6199566;28;84232;-61
2024/01/15 11:23:03;;;;;;;4.60;2.60;;;23.30;63.00;;;;;;6200195;28;83974;-61
2024/01/15 11:26:31;;;;;;;4.88;2.85;;;23.30;63.00;;;;;;6203985;28;83750;-61
2024/01/15 11:29:35;;;;;;;2.30;2.10;;;23.40;63.00;;;;;;6188665;28;84357;-61
2024/01/15 11:32:41;;;;;;;3.35;2.53;;;23.40;63.00;;;;;;6194555;28;84238;-61
2024/01/15 11:35:50;;;;;;;4.50;2.53;;;23.30;63.00;;;;;;6197415;28;85116;-61
2024/01/15 11:38:52;;;;;;;3.05;2.38;;;23.30;63.00;;;;;;6191507;28;83282;-61
2024/01/15 11:41:55;;;;;;;3.25;2.50;;;23.40;63.20;;;;;;6191603;28;82914;-61
2024/01/15 11:44:57;;;;;;;3.65;2.47;;;23.40;63.10;;;;;;6189298;28;84373;-61
2024/01/15 11:48:15;;;;;;;3.65;2.60;;;23.30;63.00;;;;;;6191431;28;84047;-61
2024/01/15 11:51:19;;;;;;;2.67;2.30;;;23.30;63.00;;;;;;6192884;28;84087;-61
2024/01/15 11:54:24;;;;;;;4.57;2.50;;;23.30;63.10;;;;;;6191841;28;82773;-61
2024/01/15 11:57:34;;;;;;;3.28;2.40;;;23.30;63.00;;;;;;6197352;28;82087;-61
2024/01/15 12:00:41;;;;;;;4.78;2.40;;;23.30;63.00;;;;;;6198030;28;84580;-61
2024/01/15 12:03:48;;;;;;;2.70;2.28;;;23.30;63.10;;;;;;6187815;28;84037;-61
2024/01/15 12:06:49;;;;;;;2.95;2.50;;;23.30;63.10;;;;;;6189795;28;85387;-61
2024/01/15 12:09:51;;;;;;;3.65;2.70;;;23.40;63.00;;;;;;6193468;28;84053;-61
2024/01/15 12:12:59;;;;;;;2.90;2.30;;;23.40;63.10;;;;;;6191255;28;84361;-61
2024/01/15 12:16:03;;;;;;;2.97;2.15;;;23.40;63.20;;;;;;6188837;28;84561;-62
2024/01/15 12:19:07;;;;;;;2.55;2.30;;;23.40;63.10;;;;;;6188914;28;83996;-61
2024/01/15 12:22:09;;;;;;;3.72;2.15;;;23.40;63.20;;;;;;6192154;28;84223;-62
2024/01/15 12:25:12;;;;;;;3.17;2.20;;;23.40;63.20;;;;;;6202481;28;84302;-61
2024/01/15 12:28:14;;;;;;;3.92;2.53;;;23.40;63.20;;;;;;6204355;28;83258;-61
2024/01/15 12:31:16;;;;;;;8.23;3.55;;;23.40;63.20;;;;;;6194088;28;84033;-61
2024/01/15 12:34:20;;;;;;;3.38;2.22;;;23.40;63.50;;;;;;6199266;28;82928;-61
2024/01/15 12:37:22;;;;;;;3.65;2.15;;;23.40;63.40;;;;;;6192996;28;84521;-61
2024/01/15 12:40:25;;;;;;;6.28;2.60;;;23.40;63.30;;;;;;6196359;28;82945;-61
2024/01/15 12:43:27;;;;;;;4.72;2.28;;;23.40;63.40;;;;;;6198086;28;83875;-61
2024/01/15 12:46:29;;;;;;;2.75;1.88;;;23.40;63.30;;;;;;6203885;28;84385;-61
2024/01/15 12:49:33;;;;;;;2.95;2.10;;;23.40;63.50;;;;;;6203479;28;83977;-61
2024/01/15 12:52:37;;;;;;;4.65;2.50;;;23.40;63.50;;;;;;6192416;28;83250;-61
2024/01/15 12:55:39;;;;;;;4.22;2.47;;;23.40;63.50;;;;;;6196190;28;84021;-61
2024/01/15 12:58:41;;;;;;;3.17;2.30;;;23.40;63.50;;;;;;6196024;28;82227;-61
2024/01/15 13:01:43;;;;;;;4.03;2.20;;;23.40;63.50;;;;;;6195099;28;84420;-61
2024/01/15 13:04:47;;;;;;;3.60;2.22;;;23.40;63.50;;;;;;6199794;28;84393;-61
2024/01/15 13:07:49;;;;;;;3.78;2.10;;;23.40;63.60;;;;;;6202444;28;84960;-61
2024/01/15 13:10:55;;;;;;;4.13;2.00;;;23.40;63.60;;;;;;6204676;28;83284;-61
2024/01/15 13:13:58;;;;;;;3.92;1.98;;;23.40;63.60;;;;;;6193082;28;84016;-61
2024/01/15 13:17:00;;;;;;;3.25;2.00;;;23.40;63.70;;;;;;6193139;28;84032;-61
2024/01/15 13:20:04;;;;;;;3.85;2.10;;;23.40;63.70;;;;;;6190469;28;84098;-61
2024/01/15 13:23:06;;;;;;;4.53;2.03;;;23.40;63.70;;;;;;6187886;28;84026;-61
2024/01/15 13:26:08;;;;;;;3.75;2.08;;;23.40;63.70;;;;;;6185621;28;83903;-61
2024/01/15 13:29:10;;;;;;;4.68;2.40;;;23.40;63.70;;;;;;6188152;28;82115;-61
2024/01/15 13:32:18;;;;;;;4.32;2.40;;;23.40;63.70;;;;;;6202616;28;84048;-61
2024/01/15 13:35:22;;;;;;;4.20;2.25;;;23.40;63.80;;;;;;6201956;28;84064;-61
2024/01/15 13:38:24;;;;;;;3.05;1.90;;;23.40;63.80;;;;;;6186025;28;84813;-61
2024/01/15 13:41:27;;;;;;;2.47;1.85;;;23.40;63.80;;;;;;6186466;28;84142;-61
2024/01/15 13:44:29;;;;;;;2.80;1.83;;;23.40;63.70;;;;;;6188987;28;84125;-61
2024/01/15 13:47:31;;;;;;;2.60;1.80;;;23.40;63.80;;;;;;6194793;28;84046;-61
2024/01/15 13:50:34;;;;;;;5.85;2.47;;;23.40;63.80;;;;;;6198414;28;84003;-61
2024/01/15 13:53:37;;;;;;;4.07;2.00;;;23.50;63.80;;;;;;6194938;28;82925;-61
2024/01/15 13:56:40;;;;;;;4.18;2.38;;;23.40;63.70;;;;;;6190815;28;83950;-60
2024/01/15 13:59:42;;;;;;;2.55;1.80;;;23.40;63.80;;;;;;6187482;28;82227;-60
2024/01/15 14:02:44;;;;;;;5.65;2.30;;;23.40;64.00;;;;;;6189181;28;83928;-61
2024/01/15 15:11:19;;;;;;;5.72;2.53;;;23.00;64.50;;;;;;6228726;28;80265;-59
2024/01/15 15:14:22;;;;;;;4.65;2.17;;;23.00;65.40;;;;;;6227788;28;82293;-59
2024/01/15 15:17:23;;;;;;;4.95;2.60;;;23.10;65.30;;;;;;6228252;28;82161;-59
2024/01/15 15:20:26;;;;;;;4.07;2.47;;;23.10;65.20;;;;;;6229078;28;81427;-59
2024/01/15 15:23:28;;;;;;;5.43;2.30;;;23.10;65.00;;;;;;6221386;28;83042;-59
2024/01/15 15:26:31;;;;;;;3.13;2.03;;;23.10;64.90;;;;;;6228946;28;82678;-59
2024/01/15 15:29:33;;;;;;;6.68;2.67;;;23.20;64.70;;;;;;6227820;28;82324;-59
2024/01/15 15:32:35;;;;;;;2.90;1.95;;;23.20;64.60;;;;;;6230200;28;82298;-59
2024/01/15 15:35:39;;;;;;;5.63;2.35;;;23.20;64.50;;;;;;6226000;28;82287;-59
2024/01/15 15:38:41;;;;;;;4.50;2.05;;;23.20;64.50;;;;;;6226199;28;81092;-59
2024/01/15 15:41:45;;;;;;;4.53;2.38;;;23.20;65.30;;;;;;6228422;28;80844;-59
2024/01/15 15:44:49;;;;;;;3.38;1.88;;;23.20;64.30;;;;;;6230551;28;82617;-59
2024/01/15 15:47:50;;;;;;;3.03;1.83;;;23.20;64.20;;;;;;6225113;28;82777;-60
2024/01/15 15:50:52;;;;;;;2.97;2.03;;;23.30;64.20;;;;;;6228020;28;81353;-59
2024/01/15 15:53:55;;;;;;;5.63;2.85;;;23.30;64.20;;;;;;6230891;28;82331;-59
2024/01/15 15:56:58;;;;;;;4.28;2.28;;;23.20;64.10;;;;;;6228843;28;82406;-59
2024/01/15 16:00:01;;;;;;;4.57;2.08;;;23.30;64.20;;;;;;6226494;28;81204;-60
2024/01/15 16:03:03;;;;;;;2.90;1.95;;;23.30;64.10;;;;;;6226326;28;82290;-60
2024/01/15 16:06:05;;;;;;;4.90;2.53;;;23.30;64.00;;;;;;6226448;28;82322;-59
2024/01/15 16:09:07;;;;;;;3.60;2.00;;;23.20;64.00;;;;;;6228156;28;81345;-59
2024/01/15 16:12:11;;;;;;;4.30;1.73;;;23.20;64.10;;;;;;6210484;28;83194;-59
2024/01/15 16:15:21;;;;;;;7.63;3.13;;;23.30;64.10;;;;;;6208018;28;82349;-58
2024/01/15 16:18:23;;;;;;;3.40;1.80;;;23.30;64.20;;;;;;6206932;28;82286;-59
2024/01/15 16:21:25;;;;;;;2.95;1.80;;;23.30;64.10;;;;;;6210043;28;82234;-59
2024/01/15 16:24:30;;;;;;;5.10;2.28;;;23.30;64.10;;;;;;6209908;28;82355;-60
2024/01/15 16:27:33;;;;;;;5.03;2.40;;;23.30;64.10;;;;;;6215384;28;82455;-61
2024/01/15 16:30:35;;;;;;;6.28;2.30;;;23.30;64.10;;;;;;6203383;28;81209;-60
2024/01/15 16:33:37;;;;;;;3.65;2.25;;;23.30;64.00;;;;;;6201195;28;81232;-61
2024/01/15 16:36:39;;;;;;;2.97;1.80;;;23.30;64.00;;;;;;6205728;28;81495;-61
2024/01/15 16:39:42;;;;;;;3.40;1.98;;;23.30;64.00;;;;;;6208910;28;82426;-60
2024/01/15 16:42:47;;;;;;;4.85;2.20;;;23.30;64.20;;;;;;6209428;28;82284;-61
2024/01/15 16:45:49;;;;;;;6.32;2.50;;;23.30;64.00;;;;;;6208759;28;81500;-60
2024/01/15 16:48:51;;;;;;;3.75;2.13;;;23.30;64.00;;;;;;6207154;28;81475;-61
2024/01/15 16:51:53;;;;;;;3.20;1.60;;;23.30;64.00;;;;;;6206814;28;83498;-60